Terminal Aerodrome Forecast
Issued by NWS Corpus Christi, TX

Home | Current Version | Previous Version | Text Only | Print | Product List | Glossary On
Versions: 1 2 3 4 5 6 7 8 9 10 11 12 13 14 15 16
000
FTUS44 KCRP 181700
TAFVCT
TAF
KVCT 181728Z 1818/1918 VRB04KT 4SM BR VCSH BKN005 OVC012
      TEMPO 1818/1820 3/4SM -SHRA BR OVC002
     FM182100 09005KT P6SM VCSH OVC015
     FM190400 10007KT 4SM BR VCTS OVC015CB PROB30 1906/1912 2SM
      +TSRA BR OVC007CB=

USA.gov is the U.S. government's official web portal to all federal, state and local government web resources and services.